sensor_id;sensor_type;location;lat;lon;timestamp;P1;durP1;ratioP1;P2;durP2;ratioP2
50225;SDS011;36113;50.742;6.432;2022-11-15T00:01:31;8.50;;;7.47;;
50225;SDS011;36113;50.742;6.432;2022-11-15T00:03:56;10.60;;;8.13;;
50225;SDS011;36113;50.742;6.432;2022-11-15T00:06:22;10.55;;;8.80;;
50225;SDS011;36113;50.742;6.432;2022-11-15T00:08:47;8.20;;;7.43;;
50225;SDS011;36113;50.742;6.432;2022-11-15T00:11:12;9.20;;;7.45;;
50225;SDS011;36113;50.742;6.432;2022-11-15T00:13:38;8.95;;;8.05;;
50225;SDS011;36113;50.742;6.432;2022-11-15T00:16:04;8.27;;;7.47;;
50225;SDS011;36113;50.742;6.432;2022-11-15T00:18:30;8.75;;;7.38;;
50225;SDS011;36113;50.742;6.432;2022-11-15T00:20:56;8.05;;;7.28;;
50225;SDS011;36113;50.742;6.432;2022-11-15T00:23:27;8.82;;;7.93;;
50225;SDS011;36113;50.742;6.432;2022-11-15T00:25:56;8.68;;;7.15;;
50225;SDS011;36113;50.742;6.432;2022-11-15T00:28:23;8.68;;;7.55;;
50225;SDS011;36113;50.742;6.432;2022-11-15T00:30:49;10.03;;;7.13;;
50225;SDS011;36113;50.742;6.432;2022-11-15T00:33:14;12.88;;;8.43;;
50225;SDS011;36113;50.742;6.432;2022-11-15T00:35:39;9.93;;;7.65;;
50225;SDS011;36113;50.742;6.432;2022-11-15T00:38:04;12.55;;;7.13;;
50225;SDS011;36113;50.742;6.432;2022-11-15T00:40:30;9.60;;;7.15;;
50225;SDS011;36113;50.742;6.432;2022-11-15T00:42:55;11.02;;;7.65;;
50225;SDS011;36113;50.742;6.432;2022-11-15T00:45:21;9.93;;;7.00;;
50225;SDS011;36113;50.742;6.432;2022-11-15T00:47:46;10.13;;;7.13;;
50225;SDS011;36113;50.742;6.432;2022-11-15T00:50:12;9.20;;;6.72;;
50225;SDS011;36113;50.742;6.432;2022-11-15T00:52:38;7.40;;;6.70;;
50225;SDS011;36113;50.742;6.432;2022-11-15T00:55:03;7.82;;;6.95;;
50225;SDS011;36113;50.742;6.432;2022-11-15T00:57:29;12.97;;;6.37;;
50225;SDS011;36113;50.742;6.432;2022-11-15T00:59:54;7.53;;;6.78;;
50225;SDS011;36113;50.742;6.432;2022-11-15T01:02:20;7.38;;;6.68;;
50225;SDS011;36113;50.742;6.432;2022-11-15T01:04:45;7.07;;;6.35;;
50225;SDS011;36113;50.742;6.432;2022-11-15T01:07:10;7.70;;;7.00;;
50225;SDS011;36113;50.742;6.432;2022-11-15T01:09:36;7.60;;;6.28;;
50225;SDS011;36113;50.742;6.432;2022-11-15T01:12:01;7.00;;;6.40;;
50225;SDS011;36113;50.742;6.432;2022-11-15T01:14:26;8.88;;;6.57;;
50225;SDS011;36113;50.742;6.432;2022-11-15T01:16:52;7.28;;;6.28;;
50225;SDS011;36113;50.742;6.432;2022-11-15T01:19:17;7.03;;;5.80;;
50225;SDS011;36113;50.742;6.432;2022-11-15T01:21:42;11.63;;;6.38;;
50225;SDS011;36113;50.742;6.432;2022-11-15T01:24:08;6.97;;;5.47;;
50225;SDS011;36113;50.742;6.432;2022-11-15T01:26:37;7.75;;;6.45;;
50225;SDS011;36113;50.742;6.432;2022-11-15T01:29:02;6.97;;;6.30;;
50225;SDS011;36113;50.742;6.432;2022-11-15T01:31:28;10.35;;;6.07;;
50225;SDS011;36113;50.742;6.432;2022-11-15T01:33:53;7.18;;;6.50;;
50225;SDS011;36113;50.742;6.432;2022-11-15T01:36:19;8.52;;;5.90;;
50225;SDS011;36113;50.742;6.432;2022-11-15T01:38:46;6.32;;;5.72;;
50225;SDS011;36113;50.742;6.432;2022-11-15T01:41:18;10.90;;;5.72;;
50225;SDS011;36113;50.742;6.432;2022-11-15T01:43:46;7.82;;;5.22;;
50225;SDS011;36113;50.742;6.432;2022-11-15T01:49:04;6.78;;;6.07;;
50225;SDS011;36113;50.742;6.432;2022-11-15T01:51:35;7.80;;;6.60;;
50225;SDS011;36113;50.742;6.432;2022-11-15T01:54:05;6.32;;;5.78;;
50225;SDS011;36113;50.742;6.432;2022-11-15T01:56:36;6.65;;;5.65;;
50225;SDS011;36113;50.742;6.432;2022-11-15T01:59:08;7.53;;;5.80;;
50225;SDS011;36113;50.742;6.432;2022-11-15T02:01:35;8.10;;;5.57;;
50225;SDS011;36113;50.742;6.432;2022-11-15T02:04:03;8.68;;;5.70;;
50225;SDS011;36113;50.742;6.432;2022-11-15T02:06:35;5.07;;;4.57;;
50225;SDS011;36113;50.742;6.432;2022-11-15T02:09:00;5.43;;;4.50;;
50225;SDS011;36113;50.742;6.432;2022-11-15T02:11:26;9.25;;;5.18;;
50225;SDS011;36113;50.742;6.432;2022-11-15T02:13:52;6.37;;;5.10;;
50225;SDS011;36113;50.742;6.432;2022-11-15T02:21:47;4.95;;;4.53;;
50225;SDS011;36113;50.742;6.432;2022-11-15T02:24:46;6.32;;;4.20;;
50225;SDS011;36113;50.742;6.432;2022-11-15T02:30:37;4.70;;;4.30;;
50225;SDS011;36113;50.742;6.432;2022-11-15T02:33:22;6.20;;;3.90;;
50225;SDS011;36113;50.742;6.432;2022-11-15T02:36:00;4.72;;;4.32;;
50225;SDS011;36113;50.742;6.432;2022-11-15T02:41:11;3.15;;;2.95;;
50225;SDS011;36113;50.742;6.432;2022-11-15T02:43:46;5.20;;;3.70;;
50225;SDS011;36113;50.742;6.432;2022-11-15T02:46:23;3.60;;;3.30;;
50225;SDS011;36113;50.742;6.432;2022-11-15T02:49:23;4.13;;;3.72;;
50225;SDS011;36113;50.742;6.432;2022-11-15T02:51:52;3.63;;;3.33;;
50225;SDS011;36113;50.742;6.432;2022-11-15T02:54:20;3.85;;;3.60;;
50225;SDS011;36113;50.742;6.432;2022-11-15T02:56:48;4.15;;;3.05;;
50225;SDS011;36113;50.742;6.432;2022-11-15T03:04:46;3.83;;;3.30;;
50225;SDS011;36113;50.742;6.432;2022-11-15T03:07:40;3.95;;;3.55;;
50225;SDS011;36113;50.742;6.432;2022-11-15T03:13:06;2.53;;;2.42;;
50225;SDS011;36113;50.742;6.432;2022-11-15T03:15:38;3.40;;;3.10;;
50225;SDS011;36113;50.742;6.432;2022-11-15T03:18:17;3.63;;;3.33;;
50225;SDS011;36113;50.742;6.432;2022-11-15T03:20:47;3.20;;;2.97;;
50225;SDS011;36113;50.742;6.432;2022-11-15T03:25:43;3.13;;;2.83;;
50225;SDS011;36113;50.742;6.432;2022-11-15T03:28:13;2.53;;;2.35;;
50225;SDS011;36113;50.742;6.432;2022-11-15T03:30:44;2.95;;;2.75;;
50225;SDS011;36113;50.742;6.432;2022-11-15T03:33:13;2.92;;;2.70;;
50225;SDS011;36113;50.742;6.432;2022-11-15T03:35:40;2.13;;;2.03;;
50225;SDS011;36113;50.742;6.432;2022-11-15T03:38:17;2.90;;;2.15;;
50225;SDS011;36113;50.742;6.432;2022-11-15T03:40:48;2.05;;;1.95;;
50225;SDS011;36113;50.742;6.432;2022-11-15T03:43:35;2.42;;;2.30;;
50225;SDS011;36113;50.742;6.432;2022-11-15T03:46:34;2.30;;;2.20;;
50225;SDS011;36113;50.742;6.432;2022-11-15T03:49:08;2.47;;;2.20;;
50225;SDS011;36113;50.742;6.432;2022-11-15T03:51:36;2.40;;;2.30;;
50225;SDS011;36113;50.742;6.432;2022-11-15T03:54:03;1.98;;;1.88;;
50225;SDS011;36113;50.742;6.432;2022-11-15T03:58:54;1.77;;;1.67;;
50225;SDS011;36113;50.742;6.432;2022-11-15T04:01:19;1.60;;;1.50;;
50225;SDS011;36113;50.742;6.432;2022-11-15T04:03:45;1.52;;;1.48;;
50225;SDS011;36113;50.742;6.432;2022-11-15T04:06:10;1.75;;;1.65;;
50225;SDS011;36113;50.742;6.432;2022-11-15T04:08:35;1.45;;;1.15;;
50225;SDS011;36113;50.742;6.432;2022-11-15T04:11:00;1.45;;;1.35;;
50225;SDS011;36113;50.742;6.432;2022-11-15T04:13:26;1.65;;;1.55;;
50225;SDS011;36113;50.742;6.432;2022-11-15T04:15:51;1.35;;;1.25;;
50225;SDS011;36113;50.742;6.432;2022-11-15T04:18:16;1.38;;;1.38;;
50225;SDS011;36113;50.742;6.432;2022-11-15T04:20:42;1.20;;;1.13;;
50225;SDS011;36113;50.742;6.432;2022-11-15T04:23:26;1.33;;;1.02;;
50225;SDS011;36113;50.742;6.432;2022-11-15T04:26:11;1.35;;;1.25;;
50225;SDS011;36113;50.742;6.432;2022-11-15T04:28:39;1.35;;;1.20;;
50225;SDS011;36113;50.742;6.432;2022-11-15T04:31:25;1.17;;;1.17;;
50225;SDS011;36113;50.742;6.432;2022-11-15T04:33:52;1.20;;;1.10;;
50225;SDS011;36113;50.742;6.432;2022-11-15T04:36:17;1.52;;;1.42;;
50225;SDS011;36113;50.742;6.432;2022-11-15T04:39:02;0.95;;;0.80;;
50225;SDS011;36113;50.742;6.432;2022-11-15T04:41:27;2.15;;;0.95;;
50225;SDS011;36113;50.742;6.432;2022-11-15T04:43:54;1.20;;;1.20;;
50225;SDS011;36113;50.742;6.432;2022-11-15T04:46:19;1.63;;;1.52;;
50225;SDS011;36113;50.742;6.432;2022-11-15T04:48:44;2.33;;;2.13;;
50225;SDS011;36113;50.742;6.432;2022-11-15T04:51:10;1.38;;;1.33;;
50225;SDS011;36113;50.742;6.432;2022-11-15T04:53:35;1.35;;;1.27;;
50225;SDS011;36113;50.742;6.432;2022-11-15T04:56:00;1.45;;;1.35;;
50225;SDS011;36113;50.742;6.432;2022-11-15T04:58:25;1.55;;;1.30;;
50225;SDS011;36113;50.742;6.432;2022-11-15T05:00:51;1.42;;;1.33;;
50225;SDS011;36113;50.742;6.432;2022-11-15T05:03:16;1.50;;;1.20;;
50225;SDS011;36113;50.742;6.432;2022-11-15T05:06:00;1.38;;;1.27;;
50225;SDS011;36113;50.742;6.432;2022-11-15T05:08:26;1.17;;;1.15;;
50225;SDS011;36113;50.742;6.432;2022-11-15T05:10:51;1.40;;;1.30;;
50225;SDS011;36113;50.742;6.432;2022-11-15T05:13:17;2.45;;;1.40;;
50225;SDS011;36113;50.742;6.432;2022-11-15T05:15:42;1.20;;;1.20;;
50225;SDS011;36113;50.742;6.432;2022-11-15T05:18:08;1.23;;;1.20;;
50225;SDS011;36113;50.742;6.432;2022-11-15T05:20:33;1.00;;;1.00;;
50225;SDS011;36113;50.742;6.432;2022-11-15T05:22:59;2.42;;;1.40;;
50225;SDS011;36113;50.742;6.432;2022-11-15T05:25:24;1.40;;;1.33;;
50225;SDS011;36113;50.742;6.432;2022-11-15T05:27:50;1.30;;;1.30;;
50225;SDS011;36113;50.742;6.432;2022-11-15T05:30:15;1.25;;;1.15;;
50225;SDS011;36113;50.742;6.432;2022-11-15T05:32:41;1.20;;;1.20;;
50225;SDS011;36113;50.742;6.432;2022-11-15T05:35:07;1.40;;;1.30;;
50225;SDS011;36113;50.742;6.432;2022-11-15T05:37:37;1.23;;;1.20;;
50225;SDS011;36113;50.742;6.432;2022-11-15T05:40:03;1.50;;;1.40;;
50225;SDS011;36113;50.742;6.432;2022-11-15T05:42:29;1.40;;;1.10;;
50225;SDS011;36113;50.742;6.432;2022-11-15T05:44:55;1.80;;;1.20;;
50225;SDS011;36113;50.742;6.432;2022-11-15T05:47:23;2.75;;;2.00;;
50225;SDS011;36113;50.742;6.432;2022-11-15T05:49:51;1.65;;;1.55;;
50225;SDS011;36113;50.742;6.432;2022-11-15T05:54:48;1.60;;;1.27;;
50225;SDS011;36113;50.742;6.432;2022-11-15T05:57:15;1.33;;;1.30;;
50225;SDS011;36113;50.742;6.432;2022-11-15T05:59:40;1.67;;;1.57;;
50225;SDS011;36113;50.742;6.432;2022-11-15T06:02:08;1.10;;;1.10;;
50225;SDS011;36113;50.742;6.432;2022-11-15T06:04:34;2.70;;;1.50;;
50225;SDS011;36113;50.742;6.432;2022-11-15T06:06:59;1.15;;;1.13;;
50225;SDS011;36113;50.742;6.432;2022-11-15T06:09:24;1.65;;;1.55;;
50225;SDS011;36113;50.742;6.432;2022-11-15T06:11:50;1.40;;;1.40;;
50225;SDS011;36113;50.742;6.432;2022-11-15T06:14:15;1.42;;;1.33;;
50225;SDS011;36113;50.742;6.432;2022-11-15T06:16:40;1.50;;;1.40;;
50225;SDS011;36113;50.742;6.432;2022-11-15T06:19:06;1.60;;;1.50;;
50225;SDS011;36113;50.742;6.432;2022-11-15T06:21:32;1.52;;;1.42;;
50225;SDS011;36113;50.742;6.432;2022-11-15T06:23:58;1.23;;;1.23;;
50225;SDS011;36113;50.742;6.432;2022-11-15T06:26:23;1.58;;;1.33;;
50225;SDS011;36113;50.742;6.432;2022-11-15T06:28:48;2.15;;;1.33;;
50225;SDS011;36113;50.742;6.432;2022-11-15T06:31:14;2.45;;;1.40;;
50225;SDS011;36113;50.742;6.432;2022-11-15T06:33:39;1.80;;;1.70;;
50225;SDS011;36113;50.742;6.432;2022-11-15T06:36:06;1.83;;;1.58;;
50225;SDS011;36113;50.742;6.432;2022-11-15T06:38:34;2.45;;;1.60;;
50225;SDS011;36113;50.742;6.432;2022-11-15T06:41:04;1.65;;;1.55;;
50225;SDS011;36113;50.742;6.432;2022-11-15T06:43:31;1.63;;;1.52;;
50225;SDS011;36113;50.742;6.432;2022-11-15T06:45:57;3.75;;;1.67;;
50225;SDS011;36113;50.742;6.432;2022-11-15T06:48:24;1.63;;;1.52;;
50225;SDS011;36113;50.742;6.432;2022-11-15T06:50:53;3.63;;;1.27;;
50225;SDS011;36113;50.742;6.432;2022-11-15T06:53:19;2.40;;;1.30;;
50225;SDS011;36113;50.742;6.432;2022-11-15T06:55:44;1.80;;;1.52;;
50225;SDS011;36113;50.742;6.432;2022-11-15T06:58:10;3.67;;;1.35;;
50225;SDS011;36113;50.742;6.432;2022-11-15T07:00:35;1.63;;;1.52;;
50225;SDS011;36113;50.742;6.432;2022-11-15T07:03:00;2.00;;;1.38;;
50225;SDS011;36113;50.742;6.432;2022-11-15T07:05:26;1.75;;;1.58;;
50225;SDS011;36113;50.742;6.432;2022-11-15T07:07:52;1.60;;;1.50;;
50225;SDS011;36113;50.742;6.432;2022-11-15T07:10:18;1.70;;;1.60;;
50225;SDS011;36113;50.742;6.432;2022-11-15T07:12:48;1.50;;;1.30;;
50225;SDS011;36113;50.742;6.432;2022-11-15T07:15:14;2.33;;;1.60;;
50225;SDS011;36113;50.742;6.432;2022-11-15T07:17:40;1.52;;;1.42;;
50225;SDS011;36113;50.742;6.432;2022-11-15T07:20:06;2.80;;;1.80;;
50225;SDS011;36113;50.742;6.432;2022-11-15T07:22:31;3.15;;;1.23;;
50225;SDS011;36113;50.742;6.432;2022-11-15T07:24:56;2.05;;;1.50;;
50225;SDS011;36113;50.742;6.432;2022-11-15T07:27:22;7.35;;;1.95;;
50225;SDS011;36113;50.742;6.432;2022-11-15T07:29:47;2.13;;;1.92;;
50225;SDS011;36113;50.742;6.432;2022-11-15T07:32:12;1.60;;;1.50;;
50225;SDS011;36113;50.742;6.432;2022-11-15T07:34:38;2.08;;;1.60;;
50225;SDS011;36113;50.742;6.432;2022-11-15T07:37:03;1.65;;;1.30;;
50225;SDS011;36113;50.742;6.432;2022-11-15T07:39:28;1.52;;;1.33;;
50225;SDS011;36113;50.742;6.432;2022-11-15T07:41:54;2.38;;;1.88;;
50225;SDS011;36113;50.742;6.432;2022-11-15T07:44:39;1.52;;;1.42;;
50225;SDS011;36113;50.742;6.432;2022-11-15T07:47:04;1.80;;;1.40;;
50225;SDS011;36113;50.742;6.432;2022-11-15T07:49:29;1.25;;;1.25;;
50225;SDS011;36113;50.742;6.432;2022-11-15T07:51:55;2.97;;;1.27;;
50225;SDS011;36113;50.742;6.432;2022-11-15T07:54:20;1.70;;;1.20;;
50225;SDS011;36113;50.742;6.432;2022-11-15T07:56:45;1.92;;;0.95;;
50225;SDS011;36113;50.742;6.432;2022-11-15T07:59:11;3.13;;;1.15;;
50225;SDS011;36113;50.742;6.432;2022-11-15T08:01:36;2.30;;;2.10;;
50225;SDS011;36113;50.742;6.432;2022-11-15T08:04:01;2.42;;;1.30;;
50225;SDS011;36113;50.742;6.432;2022-11-15T08:06:26;1.35;;;1.25;;
50225;SDS011;36113;50.742;6.432;2022-11-15T08:08:52;1.77;;;1.27;;
50225;SDS011;36113;50.742;6.432;2022-11-15T08:11:17;2.25;;;1.25;;
50225;SDS011;36113;50.742;6.432;2022-11-15T08:13:42;2.50;;;1.10;;
50225;SDS011;36113;50.742;6.432;2022-11-15T08:16:08;3.95;;;2.35;;
50225;SDS011;36113;50.742;6.432;2022-11-15T08:18:33;2.22;;;1.45;;
50225;SDS011;36113;50.742;6.432;2022-11-15T08:21:02;2.73;;;1.63;;
50225;SDS011;36113;50.742;6.432;2022-11-15T08:23:28;2.58;;;1.13;;
50225;SDS011;36113;50.742;6.432;2022-11-15T08:25:58;1.17;;;1.10;;
50225;SDS011;36113;50.742;6.432;2022-11-15T08:28:27;3.13;;;1.30;;
50225;SDS011;36113;50.742;6.432;2022-11-15T08:30:53;4.43;;;1.40;;
50225;SDS011;36113;50.742;6.432;2022-11-15T08:33:18;1.85;;;1.20;;
50225;SDS011;36113;50.742;6.432;2022-11-15T08:35:44;3.17;;;1.00;;
50225;SDS011;36113;50.742;6.432;2022-11-15T08:38:09;2.75;;;0.80;;
50225;SDS011;36113;50.742;6.432;2022-11-15T08:40:35;1.88;;;1.20;;
50225;SDS011;36113;50.742;6.432;2022-11-15T08:43:00;2.08;;;1.30;;
50225;SDS011;36113;50.742;6.432;2022-11-15T08:45:27;3.60;;;1.20;;
50225;SDS011;36113;50.742;6.432;2022-11-15T08:47:53;1.48;;;0.95;;
50225;SDS011;36113;50.742;6.432;2022-11-15T08:50:19;1.20;;;0.98;;
50225;SDS011;36113;50.742;6.432;2022-11-15T08:52:44;1.08;;;0.93;;
50225;SDS011;36113;50.742;6.432;2022-11-15T08:55:09;1.80;;;0.90;;
50225;SDS011;36113;50.742;6.432;2022-11-15T08:57:35;1.45;;;0.88;;
50225;SDS011;36113;50.742;6.432;2022-11-15T09:00:00;0.90;;;0.90;;
50225;SDS011;36113;50.742;6.432;2022-11-15T09:02:25;1.73;;;0.90;;
50225;SDS011;36113;50.742;6.432;2022-11-15T09:04:51;0.98;;;0.90;;
50225;SDS011;36113;50.742;6.432;2022-11-15T09:07:16;3.20;;;0.88;;
50225;SDS011;36113;50.742;6.432;2022-11-15T09:09:41;1.10;;;0.93;;
50225;SDS011;36113;50.742;6.432;2022-11-15T09:12:07;1.10;;;1.10;;
50225;SDS011;36113;50.742;6.432;2022-11-15T09:14:33;1.00;;;0.95;;
50225;SDS011;36113;50.742;6.432;2022-11-15T09:16:59;1.63;;;1.05;;
50225;SDS011;36113;50.742;6.432;2022-11-15T09:19:24;2.88;;;0.85;;
50225;SDS011;36113;50.742;6.432;2022-11-15T09:21:49;0.88;;;0.82;;
50225;SDS011;36113;50.742;6.432;2022-11-15T09:24:15;0.90;;;0.90;;
50225;SDS011;36113;50.742;6.432;2022-11-15T09:26:40;1.00;;;0.90;;
50225;SDS011;36113;50.742;6.432;2022-11-15T09:29:06;2.05;;;0.52;;
50225;SDS011;36113;50.742;6.432;2022-11-15T09:31:31;2.00;;;0.68;;
50225;SDS011;36113;50.742;6.432;2022-11-15T09:33:57;1.63;;;0.95;;
50225;SDS011;36113;50.742;6.432;2022-11-15T09:36:22;0.93;;;0.60;;
50225;SDS011;36113;50.742;6.432;2022-11-15T09:38:47;1.42;;;0.90;;
50225;SDS011;36113;50.742;6.432;2022-11-15T09:48:59;2.95;;;0.85;;
50225;SDS011;36113;50.742;6.432;2022-11-15T09:51:33;0.82;;;0.82;;
50225;SDS011;36113;50.742;6.432;2022-11-15T09:54:05;1.55;;;0.85;;
50225;SDS011;36113;50.742;6.432;2022-11-15T09:56:40;3.80;;;1.27;;
50225;SDS011;36113;50.742;6.432;2022-11-15T10:04:19;0.70;;;0.70;;
50225;SDS011;36113;50.742;6.432;2022-11-15T10:07:13;1.10;;;0.60;;
50225;SDS011;36113;50.742;6.432;2022-11-15T10:09:46;1.55;;;0.73;;
50225;SDS011;36113;50.742;6.432;2022-11-15T10:12:30;4.68;;;1.00;;
50225;SDS011;36113;50.742;6.432;2022-11-15T10:15:09;1.98;;;0.82;;
50225;SDS011;36113;50.742;6.432;2022-11-15T10:17:48;1.67;;;0.80;;
50225;SDS011;36113;50.742;6.432;2022-11-15T10:20:46;2.80;;;0.85;;
50225;SDS011;36113;50.742;6.432;2022-11-15T10:23:15;0.98;;;0.70;;
50225;SDS011;36113;50.742;6.432;2022-11-15T10:25:43;2.55;;;0.60;;
50225;SDS011;36113;50.742;6.432;2022-11-15T10:28:13;2.03;;;0.70;;
50225;SDS011;36113;50.742;6.432;2022-11-15T10:30:41;0.80;;;0.80;;
50225;SDS011;36113;50.742;6.432;2022-11-15T10:35:47;1.33;;;1.00;;
50225;SDS011;36113;50.742;6.432;2022-11-15T10:38:12;1.70;;;0.75;;
50225;SDS011;36113;50.742;6.432;2022-11-15T10:40:39;1.90;;;0.68;;
50225;SDS011;36113;50.742;6.432;2022-11-15T10:43:16;2.17;;;1.48;;
50225;SDS011;36113;50.742;6.432;2022-11-15T10:45:42;2.38;;;0.75;;
50225;SDS011;36113;50.742;6.432;2022-11-15T10:50:37;3.50;;;0.77;;
50225;SDS011;36113;50.742;6.432;2022-11-15T10:53:04;2.58;;;2.08;;
50225;SDS011;36113;50.742;6.432;2022-11-15T10:55:39;1.95;;;1.05;;
50225;SDS011;36113;50.742;6.432;2022-11-15T10:58:19;2.15;;;0.80;;
50225;SDS011;36113;50.742;6.432;2022-11-15T11:00:50;2.40;;;0.63;;
50225;SDS011;36113;50.742;6.432;2022-11-15T11:03:33;1.35;;;0.43;;
50225;SDS011;36113;50.742;6.432;2022-11-15T11:06:13;3.00;;;0.70;;
50225;SDS011;36113;50.742;6.432;2022-11-15T11:08:55;1.85;;;0.88;;
50225;SDS011;36113;50.742;6.432;2022-11-15T11:11:22;3.58;;;0.80;;
50225;SDS011;36113;50.742;6.432;2022-11-15T11:13:48;1.70;;;0.60;;
50225;SDS011;36113;50.742;6.432;2022-11-15T11:38:35;3.42;;;0.75;;
50225;SDS011;36113;50.742;6.432;2022-11-15T11:41:07;2.35;;;0.77;;
50225;SDS011;36113;50.742;6.432;2022-11-15T11:49:34;1.60;;;0.68;;
50225;SDS011;36113;50.742;6.432;2022-11-15T11:52:08;4.05;;;0.95;;
50225;SDS011;36113;50.742;6.432;2022-11-15T11:57:15;2.63;;;1.00;;
50225;SDS011;36113;50.742;6.432;2022-11-15T11:59:58;2.83;;;0.90;;
50225;SDS011;36113;50.742;6.432;2022-11-15T12:02:35;0.90;;;0.88;;
50225;SDS011;36113;50.742;6.432;2022-11-15T12:05:32;0.93;;;0.82;;
50225;SDS011;36113;50.742;6.432;2022-11-15T12:10:52;4.25;;;0.90;;
50225;SDS011;36113;50.742;6.432;2022-11-15T12:13:25;1.95;;;1.20;;
50225;SDS011;36113;50.742;6.432;2022-11-15T12:15:59;1.35;;;1.23;;
50225;SDS011;36113;50.742;6.432;2022-11-15T12:21:01;2.05;;;1.13;;
50225;SDS011;36113;50.742;6.432;2022-11-15T12:23:30;2.78;;;1.33;;
50225;SDS011;36113;50.742;6.432;2022-11-15T12:26:01;1.00;;;0.73;;
50225;SDS011;36113;50.742;6.432;2022-11-15T12:31:50;2.67;;;1.30;;
50225;SDS011;36113;50.742;6.432;2022-11-15T12:36:46;2.30;;;0.90;;
50225;SDS011;36113;50.742;6.432;2022-11-15T12:39:13;2.60;;;1.00;;
50225;SDS011;36113;50.742;6.432;2022-11-15T12:44:13;2.58;;;1.27;;
50225;SDS011;36113;50.742;6.432;2022-11-15T12:47:00;6.63;;;1.05;;
50225;SDS011;36113;50.742;6.432;2022-11-15T12:57:17;5.22;;;1.00;;
50225;SDS011;36113;50.742;6.432;2022-11-15T13:15:30;1.48;;;1.45;;
50225;SDS011;36113;50.742;6.432;2022-11-15T13:20:48;6.30;;;2.15;;
50225;SDS011;36113;50.742;6.432;2022-11-15T13:23:14;2.08;;;1.60;;
50225;SDS011;36113;50.742;6.432;2022-11-15T13:28:10;3.55;;;1.30;;
50225;SDS011;36113;50.742;6.432;2022-11-15T13:30:39;3.47;;;1.25;;
50225;SDS011;36113;50.742;6.432;2022-11-15T13:33:14;0.98;;;0.95;;
50225;SDS011;36113;50.742;6.432;2022-11-15T13:35:53;1.17;;;1.17;;
50225;SDS011;36113;50.742;6.432;2022-11-15T13:40:51;1.88;;;1.77;;
50225;SDS011;36113;50.742;6.432;2022-11-15T13:46:09;1.40;;;1.30;;
50225;SDS011;36113;50.742;6.432;2022-11-15T13:48:35;1.40;;;1.30;;
50225;SDS011;36113;50.742;6.432;2022-11-15T13:51:01;1.65;;;1.55;;
50225;SDS011;36113;50.742;6.432;2022-11-15T13:53:30;4.57;;;1.52;;
50225;SDS011;36113;50.742;6.432;2022-11-15T13:55:57;1.88;;;1.77;;
50225;SDS011;36113;50.742;6.432;2022-11-15T13:58:23;4.93;;;3.70;;
50225;SDS011;36113;50.742;6.432;2022-11-15T14:00:49;2.92;;;2.72;;
50225;SDS011;36113;50.742;6.432;2022-11-15T14:03:28;1.30;;;1.30;;
50225;SDS011;36113;50.742;6.432;2022-11-15T14:06:12;5.13;;;1.55;;
50225;SDS011;36113;50.742;6.432;2022-11-15T14:08:41;2.58;;;2.40;;
50225;SDS011;36113;50.742;6.432;2022-11-15T14:11:22;3.15;;;2.85;;
50225;SDS011;36113;50.742;6.432;2022-11-15T14:16:24;3.25;;;1.55;;
50225;SDS011;36113;50.742;6.432;2022-11-15T14:19:05;2.78;;;2.50;;
50225;SDS011;36113;50.742;6.432;2022-11-15T14:21:34;3.15;;;2.85;;
50225;SDS011;36113;50.742;6.432;2022-11-15T14:26:45;3.40;;;3.08;;
50225;SDS011;36113;50.742;6.432;2022-11-15T14:29:23;1.77;;;1.67;;
50225;SDS011;36113;50.742;6.432;2022-11-15T14:35:09;2.17;;;2.08;;
50225;SDS011;36113;50.742;6.432;2022-11-15T14:37:39;1.95;;;1.85;;
50225;SDS011;36113;50.742;6.432;2022-11-15T14:40:05;2.70;;;1.95;;
50225;SDS011;36113;50.742;6.432;2022-11-15T14:42:31;3.72;;;2.47;;
50225;SDS011;36113;50.742;6.432;2022-11-15T14:44:57;2.00;;;1.73;;
50225;SDS011;36113;50.742;6.432;2022-11-15T14:47:23;1.83;;;1.67;;
50225;SDS011;36113;50.742;6.432;2022-11-15T14:49:48;4.95;;;1.92;;
50225;SDS011;36113;50.742;6.432;2022-11-15T14:54:53;1.70;;;1.60;;
50225;SDS011;36113;50.742;6.432;2022-11-15T14:57:18;2.77;;;1.63;;
50225;SDS011;36113;50.742;6.432;2022-11-15T14:59:44;2.83;;;1.73;;
50225;SDS011;36113;50.742;6.432;2022-11-15T15:02:19;1.95;;;1.80;;
50225;SDS011;36113;50.742;6.432;2022-11-15T15:04:47;1.98;;;1.88;;
50225;SDS011;36113;50.742;6.432;2022-11-15T15:07:12;4.13;;;3.53;;
50225;SDS011;36113;50.742;6.432;2022-11-15T15:09:38;3.10;;;2.90;;
50225;SDS011;36113;50.742;6.432;2022-11-15T15:12:04;2.58;;;2.47;;
50225;SDS011;36113;50.742;6.432;2022-11-15T15:14:35;3.63;;;2.22;;
50225;SDS011;36113;50.742;6.432;2022-11-15T15:17:00;2.08;;;1.85;;
50225;SDS011;36113;50.742;6.432;2022-11-15T15:19:25;2.30;;;2.17;;
50225;SDS011;36113;50.742;6.432;2022-11-15T15:21:50;1.75;;;1.25;;
50225;SDS011;36113;50.742;6.432;2022-11-15T15:24:16;1.75;;;1.65;;
50225;SDS011;36113;50.742;6.432;2022-11-15T15:26:41;1.30;;;1.20;;
50225;SDS011;36113;50.742;6.432;2022-11-15T15:29:08;2.50;;;1.48;;
50225;SDS011;36113;50.742;6.432;2022-11-15T15:31:33;1.60;;;1.50;;
50225;SDS011;36113;50.742;6.432;2022-11-15T15:33:59;1.80;;;1.70;;
50225;SDS011;36113;50.742;6.432;2022-11-15T15:36:25;1.55;;;1.45;;
50225;SDS011;36113;50.742;6.432;2022-11-15T15:38:50;1.55;;;1.45;;
50225;SDS011;36113;50.742;6.432;2022-11-15T15:41:16;2.85;;;2.63;;
50225;SDS011;36113;50.742;6.432;2022-11-15T15:43:41;1.65;;;1.55;;
50225;SDS011;36113;50.742;6.432;2022-11-15T15:46:11;2.42;;;1.50;;
50225;SDS011;36113;50.742;6.432;2022-11-15T15:48:38;1.40;;;1.40;;
50225;SDS011;36113;50.742;6.432;2022-11-15T15:51:04;1.60;;;1.50;;
50225;SDS011;36113;50.742;6.432;2022-11-15T15:53:30;1.53;;;1.43;;
50225;SDS011;36113;50.742;6.432;2022-11-15T15:55:56;2.03;;;1.92;;
50225;SDS011;36113;50.742;6.432;2022-11-15T15:58:21;3.00;;;2.80;;
50225;SDS011;36113;50.742;6.432;2022-11-15T16:00:46;2.70;;;2.50;;
50225;SDS011;36113;50.742;6.432;2022-11-15T16:03:11;5.60;;;2.00;;
50225;SDS011;36113;50.742;6.432;2022-11-15T16:05:37;1.30;;;1.20;;
50225;SDS011;36113;50.742;6.432;2022-11-15T16:08:02;1.70;;;1.55;;
50225;SDS011;36113;50.742;6.432;2022-11-15T16:10:32;1.63;;;1.52;;
50225;SDS011;36113;50.742;6.432;2022-11-15T16:12:59;2.38;;;2.17;;
50225;SDS011;36113;50.742;6.432;2022-11-15T16:15:29;3.42;;;1.83;;
50225;SDS011;36113;50.742;6.432;2022-11-15T16:17:56;2.05;;;1.40;;
50225;SDS011;36113;50.742;6.432;2022-11-15T16:23:12;3.15;;;2.30;;
50225;SDS011;36113;50.742;6.432;2022-11-15T16:25:41;1.50;;;1.40;;
50225;SDS011;36113;50.742;6.432;2022-11-15T16:28:14;1.63;;;1.52;;
50225;SDS011;36113;50.742;6.432;2022-11-15T16:30:42;3.25;;;2.90;;
50225;SDS011;36113;50.742;6.432;2022-11-15T16:33:07;4.10;;;3.20;;
50225;SDS011;36113;50.742;6.432;2022-11-15T16:35:33;3.55;;;2.72;;
50225;SDS011;36113;50.742;6.432;2022-11-15T16:37:58;3.65;;;3.33;;
50225;SDS011;36113;50.742;6.432;2022-11-15T16:40:25;3.08;;;2.88;;
50225;SDS011;36113;50.742;6.432;2022-11-15T16:42:58;2.85;;;2.65;;
50225;SDS011;36113;50.742;6.432;2022-11-15T16:45:26;2.75;;;2.40;;
50225;SDS011;36113;50.742;6.432;2022-11-15T16:47:53;6.35;;;5.70;;
50225;SDS011;36113;50.742;6.432;2022-11-15T16:50:23;4.83;;;3.30;;
50225;SDS011;36113;50.742;6.432;2022-11-15T16:52:51;5.38;;;4.88;;
50225;SDS011;36113;50.742;6.432;2022-11-15T16:55:25;5.72;;;5.22;;
50225;SDS011;36113;50.742;6.432;2022-11-15T16:57:52;4.97;;;4.47;;
50225;SDS011;36113;50.742;6.432;2022-11-15T17:00:18;5.20;;;4.30;;
50225;SDS011;36113;50.742;6.432;2022-11-15T17:02:44;5.27;;;4.17;;
50225;SDS011;36113;50.742;6.432;2022-11-15T17:07:37;3.20;;;2.90;;
50225;SDS011;36113;50.742;6.432;2022-11-15T17:10:03;3.10;;;2.85;;
50225;SDS011;36113;50.742;6.432;2022-11-15T17:12:28;3.85;;;3.50;;
50225;SDS011;36113;50.742;6.432;2022-11-15T17:14:55;5.47;;;4.93;;
50225;SDS011;36113;50.742;6.432;2022-11-15T17:17:20;7.55;;;4.60;;
50225;SDS011;36113;50.742;6.432;2022-11-15T17:19:46;9.25;;;5.47;;